Zhangwu, China
Current Conditions -  °F | °C
As of 11:30 PM on Thursday 30 Oct 2014 (Local Time) from ZYTX Reporting Station
Smoke Smoke  
Wind Chill: 40°   Ceiling: Unl
Heat Index: 43°   Visibility: 0.87mi
Dew Point: 39°   Wind: 4mph
Humidity: 87%   Direction: 360°N
Pressure: 30.27"   Gusts: NA
Location:  42.42°N, 122.53°E
Report Text: ZYTX 301530Z 36002MPS 1400 R06/2000N FU NSC 06/04 Q1025 NOSIG
Loading
Personal Weather Stations






























Interactive Weather Map
Tropical Storm Tracking
New forecast layout! Learn more

10-Day Weather Forecast

Advertisements
Track Severe Weather on mobile